Aérodrome :
LOGIN :

S'inscrire | Disclaimer

   EN    FR    IT 

 










Légende :    VFR   VFR Marginal   IFR   IFR Intensif   IFR Très Intensif
Visi : 
Plafond : 
>= 8 km
>= 3000ft
5 à 8 km
1000 à 3000 ft
1500m à 5 km
500 à 1000 ft
800 à 1500m
200 à 500 ft
< 800m
< 200 ft
Symboles :   Orages  Brouillard  Fortes neiges  Fortes précipitations  Vent > 20 kt
SIGMETs :   Divers  Orages  Givrage  Turbulence  Onde Orograph.  Cendres Volcan.






- Altitude de l'aérodrome : 545 ft
- Code IATA : PZY


LZPP - Piešťany

DERNIER METAR :
  • 161400Z 33004KT 290V360 9999 SCT029 BKN070 M03/M08 Q1020

METARs EXPIRÉS :
  • 161330Z 31010KT 9999 SCT029 BKN069 M03/M08 Q1019
  • 161300Z 32005KT 9999 SCT029 BKN070 M02/M07 Q1020
  • 161230Z 32009KT 9999 SCT030 BKN070 M02/M08 Q1020
  • 161200Z 31010KT 9999 SCT030 M02/M08 Q1020
  • 161130Z 32010KT 9999 SCT044 M02/M08 Q1020

TAF TAF LZPP
Valide du 16 à 12h jusqu'au 16 à 21h UTC


161100Z 1612/1621 33009KT 9999 SCT030 SCT050
TEMPO 1612/1617 34016G26KT



MET'MAP, la Météo Aéronautique d'un coup d'oeil ! - Copyright ORBIFLY Décembre 2007 - Disclaimer

ORBIFLY MET'MAP TEAM :

Programmation & Développement : Alexandra Zaïnal
Sur une idée originale de : Baudouin d'Aumeries
Assistance à la programmation : Marc-Olivier Méhu
Soutien technique & logistique : Manuel Goepfert

Contact : metmap@orbifly.com




SOURCES & CREDITS :

   NOAA